Fords Creek, Mississippi
Current Conditions -  °F | °C
As of 9:55 AM on Friday 24 Oct 2014 (Local Time) from KBXA Reporting Station
NA  
Wind Chill: 17°   Ceiling: NA
Heat Index: 17°   Visibility: 10mi
Dew Point: 10°   Wind: 0mph
Humidity: 63%   Direction: NA
Pressure: 30.14"   Gusts: NA
Location:  30.8781°N, 89.5858°W
Report Text: KBXA 241455Z AUTO 00000KT 10SM 17/10 A3014 RMK AO2 T01710101
Loading
Personal Weather Stations






























Interactive Weather Map
Tropical Storm Tracking
New forecast layout! Learn more

10-Day Weather Forecast

Advertisements
Track Severe Weather on mobile